CDT,Max TemperatureF,Mean TemperatureF,Min TemperatureF,Max Dew PointF,MeanDew PointF,Min DewpointF,Max Humidity, Mean Humidity, Min Humidity, Max Sea Level PressureIn, Mean Sea Level PressureIn, Min Sea Level PressureIn, Max VisibilityMiles, Mean VisibilityMiles, Min VisibilityMiles, Max Wind SpeedMPH, Mean Wind SpeedMPH, Max Gust SpeedMPH,PrecipitationIn, CloudCover, Events, WindDirDegrees
2013-6-1,75,67,57,65,60,53,94,77,51,30.01,29.86,29.67,10,10,10,14,6,25,0.01,4,Rain-Thunderstorm,297
2013-6-2,68,61,52,55,53,49,93,76,56,30.13,30.07,30.01,10,10,10,12,5,17,0.00,4,,340
2013-6-3,78,63,48,62,55,47,93,74,54,30.06,29.98,29.86,10,10,9,8,2,,0.00,0,,141
2013-6-4,77,70,66,66,62,58,90,78,69,29.97,29.91,29.86,10,10,9,10,5,21,0.01,5,Rain,147
2013-6-5,71,70,68,65,65,64,90,85,81,29.93,29.90,29.87,10,9,4,5,1,,0.00,8,Thunderstorm,130
2013-6-6,75,68,57,59,56,53,93,62,46,29.97,29.95,29.92,10,10,10,10,7,,0.00,2,,351
2013-6-7,79,66,53,59,55,51,93,69,39,30.01,29.97,29.91,10,10,4,9,2,18,0.00,0,,355
2013-6-8,81,68,55,63,58,53,90,67,48,29.93,29.88,29.79,10,10,7,12,4,24,0.03,1,Rain,167
2013-6-9,84,74,64,65,62,57,94,76,40,29.93,29.86,29.80,10,10,4,14,6,23,0.18,4,Rain-Thunderstorm,255
2013-6-10,91,76,61,72,66,59,93,70,52,29.89,29.85,29.82,10,10,10,9,2,,0.00,1,,192
2013-6-11,93,82,72,71,67,62,84,62,36,29.93,29.87,29.83,10,10,10,18,8,30,0.00,0,,182
2013-6-12,93,84,75,71,70,68,87,65,47,29.91,29.85,29.83,10,10,10,20,11,30,0.00,0,,199
2013-6-13,88,76,66,71,63,57,82,62,46,30.05,29.99,29.91,10,10,10,8,4,,0.00,0,,14
2013-6-14,93,78,66,74,70,64,90,71,54,29.99,29.94,29.86,10,10,10,10,4,17,0.00,0,,173
2013-6-15,89,78,69,75,71,66,94,84,66,30.05,29.97,29.93,10,8,0,37,7,54,1.30,4,Fog-Rain-Thunderstorm,203
2013-6-16,90,78,68,74,70,66,93,78,51,29.99,29.94,29.88,10,9,4,8,3,,0.00,2,,188
2013-6-17,80,74,66,70,67,65,94,84,64,30.00,29.95,29.89,10,9,2,9,4,20,0.24,6,Rain-Thunderstorm,333
2013-6-18,89,74,62,69,63,58,100,77,44,30.03,30.00,29.95,10,7,1,7,1,,0.00,0,,50
2013-6-19,86,74,64,67,64,61,93,68,46,30.03,29.98,29.94,10,10,10,10,3,17,0.00,0,,163
2013-6-20,90,80,71,73,69,64,79,69,57,30.01,29.96,29.90,10,10,10,15,7,24,0.00,0,,159
2013-6-21,91,83,75,73,70,65,85,66,48,30.00,29.96,29.93,10,10,10,16,9,24,0.00,0,,175
2013-6-22,89,82,75,71,69,67,79,65,53,30.00,29.94,29.86,10,10,10,14,8,24,0.00,0,,171
2013-6-23,91,83,75,71,69,67,79,64,48,29.94,29.89,29.84,10,10,10,16,9,28,0.00,0,,168
2013-6-24,91,83,75,71,68,65,76,62,44,29.97,29.92,29.85,10,10,10,16,9,29,0.00,0,,174
2013-6-25,89,82,75,72,70,68,79,67,53,29.95,29.84,29.77,10,10,10,18,8,30,0.00,1,,176
2013-6-26,96,86,75,76,72,69,87,64,44,29.89,29.83,29.76,10,9,1,12,7,18,0.00,0,,209
2013-6-27,98,86,75,75,73,69,94,66,43,29.94,29.89,29.81,10,10,7,9,3,,0.00,0,,183
2013-6-28,93,82,68,69,64,57,87,58,34,29.97,29.91,29.86,10,10,10,15,8,22,0.00,0,,344
2013-6-29,89,76,63,60,56,51,87,53,29,29.92,29.88,29.83,10,10,10,23,7,36,0.00,0,,343
2013-6-30,82,71,61,57,55,52,83,58,38,30.01,29.95,29.89,10,10,10,13,7,22,0.00,1,,4